sensor_id;sensor_type;location;lat;lon;timestamp;P1;durP1;ratioP1;P2;durP2;ratioP2
77854;SDS011;67046;50.088;14.336;2023-02-28T00:00:10;9.10;;;6.20;;
77854;SDS011;67046;50.088;14.336;2023-02-28T00:01:03;8.80;;;5.50;;
77854;SDS011;67046;50.088;14.336;2023-02-28T00:01:36;9.30;;;5.60;;
77854;SDS011;67046;50.088;14.336;2023-02-28T00:02:07;9.90;;;6.40;;
77854;SDS011;67046;50.088;14.336;2023-02-28T00:02:40;10.10;;;5.70;;
77854;SDS011;67046;50.088;14.336;2023-02-28T00:03:13;10.60;;;5.80;;
77854;SDS011;67046;50.088;14.336;2023-02-28T00:03:45;8.90;;;5.90;;
77854;SDS011;67046;50.088;14.336;2023-02-28T00:04:17;10.00;;;6.10;;
77854;SDS011;67046;50.088;14.336;2023-02-28T00:04:49;9.40;;;6.20;;
77854;SDS011;67046;50.088;14.336;2023-02-28T00:05:25;10.40;;;6.10;;
77854;SDS011;67046;50.088;14.336;2023-02-28T00:05:58;11.20;;;6.50;;
77854;SDS011;67046;50.088;14.336;2023-02-28T00:06:30;11.30;;;6.60;;
77854;SDS011;67046;50.088;14.336;2023-02-28T00:07:02;11.00;;;6.50;;
77854;SDS011;67046;50.088;14.336;2023-02-28T00:07:34;10.30;;;6.00;;
77854;SDS011;67046;50.088;14.336;2023-02-28T00:08:07;10.10;;;6.20;;
77854;SDS011;67046;50.088;14.336;2023-02-28T00:08:39;9.00;;;6.00;;
77854;SDS011;67046;50.088;14.336;2023-02-28T00:09:11;10.10;;;6.40;;
77854;SDS011;67046;50.088;14.336;2023-02-28T00:09:43;11.10;;;6.90;;
77854;SDS011;67046;50.088;14.336;2023-02-28T00:10:17;9.30;;;6.40;;
77854;SDS011;67046;50.088;14.336;2023-02-28T00:10:52;9.50;;;5.80;;
77854;SDS011;67046;50.088;14.336;2023-02-28T00:11:24;9.00;;;6.30;;
77854;SDS011;67046;50.088;14.336;2023-02-28T00:11:56;10.10;;;6.70;;
77854;SDS011;67046;50.088;14.336;2023-02-28T00:12:28;10.50;;;6.20;;
77854;SDS011;67046;50.088;14.336;2023-02-28T00:13:04;10.90;;;6.70;;
77854;SDS011;67046;50.088;14.336;2023-02-28T00:13:39;9.40;;;6.10;;
77854;SDS011;67046;50.088;14.336;2023-02-28T00:14:17;11.60;;;7.20;;
77854;SDS011;67046;50.088;14.336;2023-02-28T00:14:49;12.90;;;7.20;;
77854;SDS011;67046;50.088;14.336;2023-02-28T00:15:22;10.30;;;6.60;;
77854;SDS011;67046;50.088;14.336;2023-02-28T00:15:58;9.70;;;6.20;;
77854;SDS011;67046;50.088;14.336;2023-02-28T00:16:35;10.10;;;6.10;;
77854;SDS011;67046;50.088;14.336;2023-02-28T00:17:07;9.50;;;5.80;;
77854;SDS011;67046;50.088;14.336;2023-02-28T00:17:39;9.10;;;5.80;;
77854;SDS011;67046;50.088;14.336;2023-02-28T00:18:11;9.20;;;6.30;;
77854;SDS011;67046;50.088;14.336;2023-02-28T00:18:43;10.70;;;6.10;;
77854;SDS011;67046;50.088;14.336;2023-02-28T00:19:15;14.10;;;6.50;;
77854;SDS011;67046;50.088;14.336;2023-02-28T00:19:48;9.60;;;5.80;;
77854;SDS011;67046;50.088;14.336;2023-02-28T00:20:20;9.00;;;6.20;;
77854;SDS011;67046;50.088;14.336;2023-02-28T00:20:52;10.60;;;6.40;;
77854;SDS011;67046;50.088;14.336;2023-02-28T00:21:24;7.90;;;6.20;;
77854;SDS011;67046;50.088;14.336;2023-02-28T00:21:56;11.80;;;6.90;;
77854;SDS011;67046;50.088;14.336;2023-02-28T00:22:28;11.10;;;6.50;;
77854;SDS011;67046;50.088;14.336;2023-02-28T00:23:00;11.40;;;7.00;;
77854;SDS011;67046;50.088;14.336;2023-02-28T00:23:32;11.40;;;6.80;;
77854;SDS011;67046;50.088;14.336;2023-02-28T00:24:05;9.70;;;5.80;;
77854;SDS011;67046;50.088;14.336;2023-02-28T00:24:37;12.90;;;6.70;;
77854;SDS011;67046;50.088;14.336;2023-02-28T00:25:10;9.10;;;6.10;;
77854;SDS011;67046;50.088;14.336;2023-02-28T00:25:44;9.30;;;6.10;;
77854;SDS011;67046;50.088;14.336;2023-02-28T00:26:16;10.50;;;6.90;;
77854;SDS011;67046;50.088;14.336;2023-02-28T00:26:48;9.10;;;6.20;;
77854;SDS011;67046;50.088;14.336;2023-02-28T00:27:20;11.00;;;6.50;;
77854;SDS011;67046;50.088;14.336;2023-02-28T00:27:52;9.40;;;6.20;;
77854;SDS011;67046;50.088;14.336;2023-02-28T00:28:24;10.40;;;6.50;;
77854;SDS011;67046;50.088;14.336;2023-02-28T00:28:56;14.80;;;6.50;;
77854;SDS011;67046;50.088;14.336;2023-02-28T00:29:28;11.50;;;6.70;;
77854;SDS011;67046;50.088;14.336;2023-02-28T00:30:00;10.40;;;7.20;;
77854;SDS011;67046;50.088;14.336;2023-02-28T00:31:04;10.30;;;6.20;;
77854;SDS011;67046;50.088;14.336;2023-02-28T00:31:36;11.20;;;6.90;;
77854;SDS011;67046;50.088;14.336;2023-02-28T00:32:08;9.50;;;6.30;;
77854;SDS011;67046;50.088;14.336;2023-02-28T00:32:40;9.30;;;5.90;;
77854;SDS011;67046;50.088;14.336;2023-02-28T00:33:12;9.10;;;6.20;;
77854;SDS011;67046;50.088;14.336;2023-02-28T00:33:44;11.90;;;6.40;;
77854;SDS011;67046;50.088;14.336;2023-02-28T00:34:16;11.10;;;6.90;;
77854;SDS011;67046;50.088;14.336;2023-02-28T00:34:48;9.60;;;5.60;;
77854;SDS011;67046;50.088;14.336;2023-02-28T00:35:20;9.30;;;6.30;;
77854;SDS011;67046;50.088;14.336;2023-02-28T00:35:52;10.60;;;6.80;;
77854;SDS011;67046;50.088;14.336;2023-02-28T00:36:32;10.10;;;6.30;;
77854;SDS011;67046;50.088;14.336;2023-02-28T00:37:08;10.10;;;6.80;;
77854;SDS011;67046;50.088;14.336;2023-02-28T00:37:43;11.20;;;6.40;;
77854;SDS011;67046;50.088;14.336;2023-02-28T00:38:15;9.10;;;5.80;;
77854;SDS011;67046;50.088;14.336;2023-02-28T00:38:48;9.80;;;6.90;;
77854;SDS011;67046;50.088;14.336;2023-02-28T00:39:20;9.80;;;6.40;;
77854;SDS011;67046;50.088;14.336;2023-02-28T00:39:52;10.80;;;6.30;;
77854;SDS011;67046;50.088;14.336;2023-02-28T00:40:24;10.90;;;6.40;;
77854;SDS011;67046;50.088;14.336;2023-02-28T00:40:56;9.30;;;6.40;;
77854;SDS011;67046;50.088;14.336;2023-02-28T00:41:29;9.70;;;6.30;;
77854;SDS011;67046;50.088;14.336;2023-02-28T00:42:02;9.50;;;6.30;;
77854;SDS011;67046;50.088;14.336;2023-02-28T00:42:35;9.60;;;5.80;;
77854;SDS011;67046;50.088;14.336;2023-02-28T00:43:07;9.80;;;6.40;;
77854;SDS011;67046;50.088;14.336;2023-02-28T00:43:39;8.90;;;6.10;;
77854;SDS011;67046;50.088;14.336;2023-02-28T00:44:43;10.10;;;6.30;;
77854;SDS011;67046;50.088;14.336;2023-02-28T00:45:15;8.80;;;6.40;;
77854;SDS011;67046;50.088;14.336;2023-02-28T00:45:47;10.40;;;6.70;;
77854;SDS011;67046;50.088;14.336;2023-02-28T00:46:19;10.80;;;6.30;;
77854;SDS011;67046;50.088;14.336;2023-02-28T00:46:51;9.10;;;6.20;;
77854;SDS011;67046;50.088;14.336;2023-02-28T00:47:25;10.30;;;6.80;;
77854;SDS011;67046;50.088;14.336;2023-02-28T00:47:57;9.20;;;6.20;;
77854;SDS011;67046;50.088;14.336;2023-02-28T00:48:29;10.20;;;7.10;;
77854;SDS011;67046;50.088;14.336;2023-02-28T00:49:02;11.20;;;6.50;;
77854;SDS011;67046;50.088;14.336;2023-02-28T00:49:34;9.40;;;6.40;;
77854;SDS011;67046;50.088;14.336;2023-02-28T00:50:06;11.00;;;7.10;;
77854;SDS011;67046;50.088;14.336;2023-02-28T00:50:39;10.30;;;6.30;;
77854;SDS011;67046;50.088;14.336;2023-02-28T00:51:11;9.30;;;6.60;;
77854;SDS011;67046;50.088;14.336;2023-02-28T00:51:43;10.80;;;6.20;;
77854;SDS011;67046;50.088;14.336;2023-02-28T00:52:15;10.50;;;6.60;;
77854;SDS011;67046;50.088;14.336;2023-02-28T00:52:47;9.60;;;6.90;;
77854;SDS011;67046;50.088;14.336;2023-02-28T00:53:52;10.70;;;6.60;;
77854;SDS011;67046;50.088;14.336;2023-02-28T00:54:56;10.70;;;6.30;;
77854;SDS011;67046;50.088;14.336;2023-02-28T00:55:28;10.90;;;7.10;;
77854;SDS011;67046;50.088;14.336;2023-02-28T00:56:00;9.30;;;5.90;;
77854;SDS011;67046;50.088;14.336;2023-02-28T00:56:32;11.60;;;6.70;;
77854;SDS011;67046;50.088;14.336;2023-02-28T00:57:04;10.20;;;6.30;;
77854;SDS011;67046;50.088;14.336;2023-02-28T00:57:36;9.20;;;6.40;;
77854;SDS011;67046;50.088;14.336;2023-02-28T00:58:08;10.70;;;6.60;;
77854;SDS011;67046;50.088;14.336;2023-02-28T00:58:40;10.40;;;6.90;;
77854;SDS011;67046;50.088;14.336;2023-02-28T00:59:12;12.70;;;6.90;;
77854;SDS011;67046;50.088;14.336;2023-02-28T00:59:45;9.70;;;6.40;;
77854;SDS011;67046;50.088;14.336;2023-02-28T01:00:17;10.20;;;5.90;;
77854;SDS011;67046;50.088;14.336;2023-02-28T01:00:51;12.00;;;6.60;;
77854;SDS011;67046;50.088;14.336;2023-02-28T01:01:24;10.30;;;6.20;;
77854;SDS011;67046;50.088;14.336;2023-02-28T01:01:56;10.00;;;6.10;;
77854;SDS011;67046;50.088;14.336;2023-02-28T01:02:27;8.70;;;6.30;;
77854;SDS011;67046;50.088;14.336;2023-02-28T01:02:59;10.80;;;6.50;;
77854;SDS011;67046;50.088;14.336;2023-02-28T01:03:31;11.80;;;6.90;;
77854;SDS011;67046;50.088;14.336;2023-02-28T01:04:03;9.90;;;6.70;;
77854;SDS011;67046;50.088;14.336;2023-02-28T01:05:07;8.30;;;5.80;;
77854;SDS011;67046;50.088;14.336;2023-02-28T01:06:12;8.80;;;5.60;;
77854;SDS011;67046;50.088;14.336;2023-02-28T01:06:44;8.80;;;5.70;;
77854;SDS011;67046;50.088;14.336;2023-02-28T01:07:16;9.50;;;6.30;;
77854;SDS011;67046;50.088;14.336;2023-02-28T01:07:48;10.30;;;6.20;;
77854;SDS011;67046;50.088;14.336;2023-02-28T01:08:20;10.60;;;6.30;;
77854;SDS011;67046;50.088;14.336;2023-02-28T01:08:53;9.70;;;6.00;;
77854;SDS011;67046;50.088;14.336;2023-02-28T01:09:57;10.70;;;5.80;;
77854;SDS011;67046;50.088;14.336;2023-02-28T01:10:29;10.70;;;6.30;;
77854;SDS011;67046;50.088;14.336;2023-02-28T01:11:09;10.80;;;6.40;;
77854;SDS011;67046;50.088;14.336;2023-02-28T01:11:43;9.20;;;6.30;;
77854;SDS011;67046;50.088;14.336;2023-02-28T01:12:15;12.10;;;6.70;;
77854;SDS011;67046;50.088;14.336;2023-02-28T01:12:48;10.20;;;6.30;;
77854;SDS011;67046;50.088;14.336;2023-02-28T01:13:20;11.00;;;6.50;;
77854;SDS011;67046;50.088;14.336;2023-02-28T01:13:52;10.00;;;6.80;;
77854;SDS011;67046;50.088;14.336;2023-02-28T01:14:24;9.30;;;6.20;;
77854;SDS011;67046;50.088;14.336;2023-02-28T01:15:28;9.00;;;6.00;;
77854;SDS011;67046;50.088;14.336;2023-02-28T01:16:00;11.50;;;7.30;;
77854;SDS011;67046;50.088;14.336;2023-02-28T01:16:32;10.70;;;6.60;;
77854;SDS011;67046;50.088;14.336;2023-02-28T01:17:04;11.20;;;7.10;;
77854;SDS011;67046;50.088;14.336;2023-02-28T01:17:36;10.10;;;6.60;;
77854;SDS011;67046;50.088;14.336;2023-02-28T01:18:08;13.30;;;7.30;;
77854;SDS011;67046;50.088;14.336;2023-02-28T01:18:40;10.10;;;6.80;;
77854;SDS011;67046;50.088;14.336;2023-02-28T01:19:13;10.90;;;6.70;;
77854;SDS011;67046;50.088;14.336;2023-02-28T01:19:45;10.10;;;6.70;;
77854;SDS011;67046;50.088;14.336;2023-02-28T01:20:17;13.10;;;7.60;;
77854;SDS011;67046;50.088;14.336;2023-02-28T01:20:50;11.70;;;7.20;;
77854;SDS011;67046;50.088;14.336;2023-02-28T01:21:23;11.10;;;7.40;;
77854;SDS011;67046;50.088;14.336;2023-02-28T01:21:55;13.00;;;6.80;;
77854;SDS011;67046;50.088;14.336;2023-02-28T01:22:27;10.70;;;6.60;;
77854;SDS011;67046;50.088;14.336;2023-02-28T01:22:59;11.10;;;6.60;;
77854;SDS011;67046;50.088;14.336;2023-02-28T01:23:31;13.20;;;7.60;;
77854;SDS011;67046;50.088;14.336;2023-02-28T01:24:04;10.80;;;6.90;;
77854;SDS011;67046;50.088;14.336;2023-02-28T01:24:37;10.00;;;6.70;;
77854;SDS011;67046;50.088;14.336;2023-02-28T01:25:41;10.80;;;6.70;;
77854;SDS011;67046;50.088;14.336;2023-02-28T01:26:14;11.20;;;6.90;;
77854;SDS011;67046;50.088;14.336;2023-02-28T01:26:48;11.40;;;6.70;;
77854;SDS011;67046;50.088;14.336;2023-02-28T01:27:20;11.50;;;6.40;;
77854;SDS011;67046;50.088;14.336;2023-02-28T01:28:24;11.90;;;7.30;;
77854;SDS011;67046;50.088;14.336;2023-02-28T01:28:56;11.40;;;6.60;;
77854;SDS011;67046;50.088;14.336;2023-02-28T01:29:28;9.40;;;6.10;;
77854;SDS011;67046;50.088;14.336;2023-02-28T01:30:00;11.90;;;7.20;;
77854;SDS011;67046;50.088;14.336;2023-02-28T01:30:32;10.30;;;6.60;;
77854;SDS011;67046;50.088;14.336;2023-02-28T01:31:04;10.80;;;6.10;;
77854;SDS011;67046;50.088;14.336;2023-02-28T01:31:37;10.30;;;6.30;;
77854;SDS011;67046;50.088;14.336;2023-02-28T01:32:09;11.30;;;7.00;;
77854;SDS011;67046;50.088;14.336;2023-02-28T01:32:41;9.20;;;6.20;;
77854;SDS011;67046;50.088;14.336;2023-02-28T01:33:13;11.30;;;7.20;;
77854;SDS011;67046;50.088;14.336;2023-02-28T01:33:45;9.20;;;6.30;;
77854;SDS011;67046;50.088;14.336;2023-02-28T01:34:18;10.80;;;6.80;;
77854;SDS011;67046;50.088;14.336;2023-02-28T01:34:53;9.90;;;6.30;;
77854;SDS011;67046;50.088;14.336;2023-02-28T01:35:25;9.10;;;6.00;;
77854;SDS011;67046;50.088;14.336;2023-02-28T01:36:00;9.40;;;6.50;;
77854;SDS011;67046;50.088;14.336;2023-02-28T01:36:34;10.40;;;6.60;;
77854;SDS011;67046;50.088;14.336;2023-02-28T01:37:06;10.90;;;6.90;;
77854;SDS011;67046;50.088;14.336;2023-02-28T01:37:38;11.20;;;6.40;;
77854;SDS011;67046;50.088;14.336;2023-02-28T01:38:10;10.80;;;6.80;;
77854;SDS011;67046;50.088;14.336;2023-02-28T01:38:42;12.70;;;7.50;;
77854;SDS011;67046;50.088;14.336;2023-02-28T01:39:15;11.50;;;6.30;;
77854;SDS011;67046;50.088;14.336;2023-02-28T01:39:47;10.30;;;7.20;;
77854;SDS011;67046;50.088;14.336;2023-02-28T01:40:19;13.20;;;7.30;;
77854;SDS011;67046;50.088;14.336;2023-02-28T01:40:51;11.90;;;7.80;;
77854;SDS011;67046;50.088;14.336;2023-02-28T01:41:27;10.10;;;6.60;;
77854;SDS011;67046;50.088;14.336;2023-02-28T01:42:02;12.20;;;7.00;;
77854;SDS011;67046;50.088;14.336;2023-02-28T01:42:34;12.90;;;8.10;;
77854;SDS011;67046;50.088;14.336;2023-02-28T01:43:16;12.80;;;6.90;;
77854;SDS011;67046;50.088;14.336;2023-02-28T01:43:55;10.60;;;6.50;;
77854;SDS011;67046;50.088;14.336;2023-02-28T01:45:34;14.40;;;7.10;;
77854;SDS011;67046;50.088;14.336;2023-02-28T01:46:07;10.00;;;6.10;;
77854;SDS011;67046;50.088;14.336;2023-02-28T01:46:39;13.00;;;6.90;;
77854;SDS011;67046;50.088;14.336;2023-02-28T01:47:11;13.10;;;6.70;;
77854;SDS011;67046;50.088;14.336;2023-02-28T01:48:16;13.20;;;6.60;;
77854;SDS011;67046;50.088;14.336;2023-02-28T01:48:51;11.00;;;6.80;;
77854;SDS011;67046;50.088;14.336;2023-02-28T01:49:29;10.40;;;6.20;;
77854;SDS011;67046;50.088;14.336;2023-02-28T01:50:03;10.70;;;7.00;;
77854;SDS011;67046;50.088;14.336;2023-02-28T01:50:39;9.30;;;6.40;;
77854;SDS011;67046;50.088;14.336;2023-02-28T01:51:17;12.60;;;7.30;;
77854;SDS011;67046;50.088;14.336;2023-02-28T01:51:53;11.30;;;6.30;;
77854;SDS011;67046;50.088;14.336;2023-02-28T01:52:28;9.50;;;6.20;;
77854;SDS011;67046;50.088;14.336;2023-02-28T01:53:03;10.30;;;6.60;;
77854;SDS011;67046;50.088;14.336;2023-02-28T01:53:42;11.50;;;6.40;;
77854;SDS011;67046;50.088;14.336;2023-02-28T01:54:29;10.40;;;6.50;;
77854;SDS011;67046;50.088;14.336;2023-02-28T01:55:04;11.60;;;7.10;;
77854;SDS011;67046;50.088;14.336;2023-02-28T01:55:39;11.30;;;6.70;;
77854;SDS011;67046;50.088;14.336;2023-02-28T01:56:15;12.40;;;6.90;;
77854;SDS011;67046;50.088;14.336;2023-02-28T01:56:59;10.60;;;7.10;;
77854;SDS011;67046;50.088;14.336;2023-02-28T01:57:50;10.90;;;6.30;;
77854;SDS011;67046;50.088;14.336;2023-02-28T01:58:26;9.90;;;5.90;;
77854;SDS011;67046;50.088;14.336;2023-02-28T01:58:58;11.10;;;6.60;;
77854;SDS011;67046;50.088;14.336;2023-02-28T02:00:10;11.20;;;6.40;;
77854;SDS011;67046;50.088;14.336;2023-02-28T02:00:47;10.30;;;6.50;;
77854;SDS011;67046;50.088;14.336;2023-02-28T02:01:21;12.10;;;7.30;;
77854;SDS011;67046;50.088;14.336;2023-02-28T02:01:55;11.60;;;6.60;;
77854;SDS011;67046;50.088;14.336;2023-02-28T02:02:27;11.40;;;6.70;;
77854;SDS011;67046;50.088;14.336;2023-02-28T02:03:04;10.80;;;6.70;;
77854;SDS011;67046;50.088;14.336;2023-02-28T02:03:40;10.30;;;6.60;;
77854;SDS011;67046;50.088;14.336;2023-02-28T02:04:12;12.50;;;6.80;;
77854;SDS011;67046;50.088;14.336;2023-02-28T02:05:33;11.30;;;6.90;;
77854;SDS011;67046;50.088;14.336;2023-02-28T02:06:06;9.90;;;7.00;;
77854;SDS011;67046;50.088;14.336;2023-02-28T02:06:42;10.60;;;7.10;;
77854;SDS011;67046;50.088;14.336;2023-02-28T02:07:17;10.70;;;6.30;;
77854;SDS011;67046;50.088;14.336;2023-02-28T02:07:54;10.70;;;6.90;;
77854;SDS011;67046;50.088;14.336;2023-02-28T02:08:29;11.20;;;6.60;;
77854;SDS011;67046;50.088;14.336;2023-02-28T02:09:01;11.50;;;7.30;;
77854;SDS011;67046;50.088;14.336;2023-02-28T02:09:34;12.50;;;7.20;;
77854;SDS011;67046;50.088;14.336;2023-02-28T02:10:50;11.00;;;7.00;;
77854;SDS011;67046;50.088;14.336;2023-02-28T02:11:25;12.90;;;7.10;;
77854;SDS011;67046;50.088;14.336;2023-02-28T02:12:02;12.10;;;7.10;;
77854;SDS011;67046;50.088;14.336;2023-02-28T02:13:52;11.40;;;6.90;;
77854;SDS011;67046;50.088;14.336;2023-02-28T02:14:34;11.00;;;6.30;;
77854;SDS011;67046;50.088;14.336;2023-02-28T02:15:32;10.60;;;6.20;;
77854;SDS011;67046;50.088;14.336;2023-02-28T02:17:37;11.00;;;6.30;;
77854;SDS011;67046;50.088;14.336;2023-02-28T02:18:53;10.80;;;6.10;;
77854;SDS011;67046;50.088;14.336;2023-02-28T02:23:45;9.10;;;5.80;;
77854;SDS011;67046;50.088;14.336;2023-02-28T02:25:32;9.50;;;5.60;;
77854;SDS011;67046;50.088;14.336;2023-02-28T02:27:11;11.30;;;6.90;;
77854;SDS011;67046;50.088;14.336;2023-02-28T02:31:26;8.60;;;5.30;;
77854;SDS011;67046;50.088;14.336;2023-02-28T02:32:09;12.40;;;5.80;;
77854;SDS011;67046;50.088;14.336;2023-02-28T02:32:49;11.80;;;7.10;;
77854;SDS011;67046;50.088;14.336;2023-02-28T02:35:30;11.00;;;7.10;;
77854;SDS011;67046;50.088;14.336;2023-02-28T02:37:04;9.10;;;5.70;;
77854;SDS011;67046;50.088;14.336;2023-02-28T02:38:08;13.30;;;6.20;;
77854;SDS011;67046;50.088;14.336;2023-02-28T02:39:47;10.20;;;6.20;;
77854;SDS011;67046;50.088;14.336;2023-02-28T02:40:27;10.00;;;6.30;;
77854;SDS011;67046;50.088;14.336;2023-02-28T02:41:51;11.80;;;5.80;;
77854;SDS011;67046;50.088;14.336;2023-02-28T02:42:27;9.80;;;5.70;;
77854;SDS011;67046;50.088;14.336;2023-02-28T02:43:22;11.40;;;6.40;;
77854;SDS011;67046;50.088;14.336;2023-02-28T02:44:59;8.50;;;5.50;;
77854;SDS011;67046;50.088;14.336;2023-02-28T02:45:38;9.90;;;5.50;;
77854;SDS011;67046;50.088;14.336;2023-02-28T02:46:15;9.60;;;5.40;;
77854;SDS011;67046;50.088;14.336;2023-02-28T02:46:58;9.70;;;5.70;;
77854;SDS011;67046;50.088;14.336;2023-02-28T02:47:35;10.00;;;5.40;;
77854;SDS011;67046;50.088;14.336;2023-02-28T02:48:09;9.80;;;5.40;;
77854;SDS011;67046;50.088;14.336;2023-02-28T02:48:45;8.50;;;5.30;;
77854;SDS011;67046;50.088;14.336;2023-02-28T02:49:20;9.10;;;6.00;;
77854;SDS011;67046;50.088;14.336;2023-02-28T02:49:58;9.30;;;5.30;;
77854;SDS011;67046;50.088;14.336;2023-02-28T02:50:37;9.40;;;5.60;;
77854;SDS011;67046;50.088;14.336;2023-02-28T02:51:30;9.30;;;5.50;;
77854;SDS011;67046;50.088;14.336;2023-02-28T02:52:08;10.60;;;5.60;;
77854;SDS011;67046;50.088;14.336;2023-02-28T02:52:45;10.80;;;5.40;;
77854;SDS011;67046;50.088;14.336;2023-02-28T02:54:11;9.10;;;5.00;;
77854;SDS011;67046;50.088;14.336;2023-02-28T02:54:48;8.20;;;5.60;;
77854;SDS011;67046;50.088;14.336;2023-02-28T02:55:24;9.50;;;5.60;;
77854;SDS011;67046;50.088;14.336;2023-02-28T02:55:57;8.80;;;5.70;;
77854;SDS011;67046;50.088;14.336;2023-02-28T02:56:31;9.20;;;5.50;;
77854;SDS011;67046;50.088;14.336;2023-02-28T02:57:08;9.60;;;5.30;;
77854;SDS011;67046;50.088;14.336;2023-02-28T02:58:04;9.30;;;5.70;;
77854;SDS011;67046;50.088;14.336;2023-02-28T02:58:40;10.20;;;5.70;;
77854;SDS011;67046;50.088;14.336;2023-02-28T02:59:16;9.40;;;5.40;;
77854;SDS011;67046;50.088;14.336;2023-02-28T02:59:53;8.70;;;5.60;;
77854;SDS011;67046;50.088;14.336;2023-02-28T03:00:37;9.40;;;5.60;;
77854;SDS011;67046;50.088;14.336;2023-02-28T03:01:21;11.40;;;6.00;;
77854;SDS011;67046;50.088;14.336;2023-02-28T03:01:59;13.00;;;6.50;;
77854;SDS011;67046;50.088;14.336;2023-02-28T03:02:35;10.40;;;6.30;;
77854;SDS011;67046;50.088;14.336;2023-02-28T03:03:09;10.00;;;5.40;;
77854;SDS011;67046;50.088;14.336;2023-02-28T03:03:43;8.30;;;5.70;;
77854;SDS011;67046;50.088;14.336;2023-02-28T03:04:17;11.40;;;6.10;;
77854;SDS011;67046;50.088;14.336;2023-02-28T03:04:53;10.40;;;5.40;;
77854;SDS011;67046;50.088;14.336;2023-02-28T03:06:20;8.80;;;5.30;;
77854;SDS011;67046;50.088;14.336;2023-02-28T03:06:52;9.70;;;5.70;;
77854;SDS011;67046;50.088;14.336;2023-02-28T03:07:26;9.20;;;5.50;;
77854;SDS011;67046;50.088;14.336;2023-02-28T03:07:59;9.30;;;6.20;;
77854;SDS011;67046;50.088;14.336;2023-02-28T03:08:35;9.30;;;5.60;;
77854;SDS011;67046;50.088;14.336;2023-02-28T03:09:09;8.40;;;5.80;;
77854;SDS011;67046;50.088;14.336;2023-02-28T03:09:49;8.70;;;5.80;;
77854;SDS011;67046;50.088;14.336;2023-02-28T03:11:12;9.80;;;5.80;;
77854;SDS011;67046;50.088;14.336;2023-02-28T03:11:46;9.00;;;5.60;;
77854;SDS011;67046;50.088;14.336;2023-02-28T03:12:21;9.20;;;5.90;;
77854;SDS011;67046;50.088;14.336;2023-02-28T03:13:34;10.50;;;6.00;;
77854;SDS011;67046;50.088;14.336;2023-02-28T03:14:55;7.70;;;5.10;;
77854;SDS011;67046;50.088;14.336;2023-02-28T03:18:19;10.20;;;5.10;;
77854;SDS011;67046;50.088;14.336;2023-02-28T03:18:37;9.40;;;5.00;;
77854;SDS011;67046;50.088;14.336;2023-02-28T03:21:04;8.10;;;5.20;;
77854;SDS011;67046;50.088;14.336;2023-02-28T03:23:53;10.00;;;5.60;;
77854;SDS011;67046;50.088;14.336;2023-02-28T03:25:09;10.90;;;5.20;;
77854;SDS011;67046;50.088;14.336;2023-02-28T03:26:25;8.30;;;5.20;;
77854;SDS011;67046;50.088;14.336;2023-02-28T03:27:03;9.10;;;4.80;;
77854;SDS011;67046;50.088;14.336;2023-02-28T03:29:01;9.10;;;5.40;;
77854;SDS011;67046;50.088;14.336;2023-02-28T03:29:28;12.70;;;5.30;;
77854;SDS011;67046;50.088;14.336;2023-02-28T03:31:43;9.70;;;5.50;;
77854;SDS011;67046;50.088;14.336;2023-02-28T03:32:29;9.40;;;5.20;;
77854;SDS011;67046;50.088;14.336;2023-02-28T03:33:49;10.20;;;5.80;;
77854;SDS011;67046;50.088;14.336;2023-02-28T03:34:29;8.00;;;4.80;;
77854;SDS011;67046;50.088;14.336;2023-02-28T03:35:12;10.70;;;6.00;;
77854;SDS011;67046;50.088;14.336;2023-02-28T03:36:06;9.20;;;5.50;;
77854;SDS011;67046;50.088;14.336;2023-02-28T03:36:45;9.90;;;6.30;;
77854;SDS011;67046;50.088;14.336;2023-02-28T03:37:20;9.80;;;5.80;;
77854;SDS011;67046;50.088;14.336;2023-02-28T03:37:58;8.80;;;5.60;;
77854;SDS011;67046;50.088;14.336;2023-02-28T03:38:47;12.80;;;5.70;;
77854;SDS011;67046;50.088;14.336;2023-02-28T03:39:37;11.40;;;6.00;;
77854;SDS011;67046;50.088;14.336;2023-02-28T03:40:15;9.90;;;6.10;;
77854;SDS011;67046;50.088;14.336;2023-02-28T03:40:55;10.90;;;6.50;;
77854;SDS011;67046;50.088;14.336;2023-02-28T03:41:35;14.00;;;6.50;;
77854;SDS011;67046;50.088;14.336;2023-02-28T03:42:20;9.80;;;5.40;;
77854;SDS011;67046;50.088;14.336;2023-02-28T03:42:57;9.60;;;5.50;;
77854;SDS011;67046;50.088;14.336;2023-02-28T03:44:13;8.60;;;4.90;;
77854;SDS011;67046;50.088;14.336;2023-02-28T03:44:49;9.00;;;4.70;;
77854;SDS011;67046;50.088;14.336;2023-02-28T03:45:26;7.80;;;5.20;;
77854;SDS011;67046;50.088;14.336;2023-02-28T03:46:02;10.10;;;5.70;;
77854;SDS011;67046;50.088;14.336;2023-02-28T03:46:40;11.30;;;5.00;;
77854;SDS011;67046;50.088;14.336;2023-02-28T03:47:19;8.40;;;5.30;;
77854;SDS011;67046;50.088;14.336;2023-02-28T03:48:03;9.10;;;5.30;;
77854;SDS011;67046;50.088;14.336;2023-02-28T03:48:46;11.70;;;5.90;;
77854;SDS011;67046;50.088;14.336;2023-02-28T03:49:23;11.10;;;5.70;;
77854;SDS011;67046;50.088;14.336;2023-02-28T03:50:45;11.80;;;5.80;;
77854;SDS011;67046;50.088;14.336;2023-02-28T03:51:25;8.70;;;5.30;;
77854;SDS011;67046;50.088;14.336;2023-02-28T03:52:01;10.40;;;5.50;;
77854;SDS011;67046;50.088;14.336;2023-02-28T03:52:36;8.30;;;5.10;;
77854;SDS011;67046;50.088;14.336;2023-02-28T03:53:18;10.50;;;5.70;;
77854;SDS011;67046;50.088;14.336;2023-02-28T03:53:58;9.10;;;5.40;;
77854;SDS011;67046;50.088;14.336;2023-02-28T03:54:39;10.60;;;5.90;;
77854;SDS011;67046;50.088;14.336;2023-02-28T03:55:16;10.00;;;5.70;;
77854;SDS011;67046;50.088;14.336;2023-02-28T03:55:52;9.30;;;5.90;;
77854;SDS011;67046;50.088;14.336;2023-02-28T03:56:34;10.50;;;5.80;;
77854;SDS011;67046;50.088;14.336;2023-02-28T03:57:23;10.30;;;5.60;;
77854;SDS011;67046;50.088;14.336;2023-02-28T03:59:32;9.60;;;5.30;;
77854;SDS011;67046;50.088;14.336;2023-02-28T04:00:20;9.90;;;5.80;;
77854;SDS011;67046;50.088;14.336;2023-02-28T04:01:09;9.60;;;5.60;;
77854;SDS011;67046;50.088;14.336;2023-02-28T04:01:49;8.80;;;5.60;;
77854;SDS011;67046;50.088;14.336;2023-02-28T04:02:21;9.80;;;6.00;;
77854;SDS011;67046;50.088;14.336;2023-02-28T04:02:54;10.10;;;6.20;;
77854;SDS011;67046;50.088;14.336;2023-02-28T04:03:26;9.10;;;5.80;;
77854;SDS011;67046;50.088;14.336;2023-02-28T04:03:58;9.60;;;6.10;;
77854;SDS011;67046;50.088;14.336;2023-02-28T04:04:30;9.90;;;5.70;;
77854;SDS011;67046;50.088;14.336;2023-02-28T04:05:43;10.50;;;5.60;;
77854;SDS011;67046;50.088;14.336;2023-02-28T04:06:23;9.50;;;5.60;;
77854;SDS011;67046;50.088;14.336;2023-02-28T04:07:08;11.70;;;6.00;;
77854;SDS011;67046;50.088;14.336;2023-02-28T04:07:42;11.40;;;5.70;;
77854;SDS011;67046;50.088;14.336;2023-02-28T04:08:14;10.20;;;6.00;;
77854;SDS011;67046;50.088;14.336;2023-02-28T04:08:46;10.50;;;5.30;;
77854;SDS011;67046;50.088;14.336;2023-02-28T04:09:18;10.10;;;6.00;;
77854;SDS011;67046;50.088;14.336;2023-02-28T04:09:50;10.60;;;5.80;;
77854;SDS011;67046;50.088;14.336;2023-02-28T04:10:23;9.80;;;6.50;;
77854;SDS011;67046;50.088;14.336;2023-02-28T04:11:06;8.70;;;6.50;;
77854;SDS011;67046;50.088;14.336;2023-02-28T04:11:52;12.30;;;6.20;;
77854;SDS011;67046;50.088;14.336;2023-02-28T04:12:24;9.60;;;5.30;;
77854;SDS011;67046;50.088;14.336;2023-02-28T04:12:56;9.50;;;6.20;;
77854;SDS011;67046;50.088;14.336;2023-02-28T04:13:28;11.70;;;6.00;;
77854;SDS011;67046;50.088;14.336;2023-02-28T04:14:04;11.90;;;5.60;;